sensor_id;sensor_type;location;lat;lon;timestamp;P1;durP1;ratioP1;P2;durP2;ratioP2
19780;SDS011;10050;55.492;13.506;2023-03-14T00:02:21;16.63;;;3.77;;
19780;SDS011;10050;55.492;13.506;2023-03-14T00:04:52;19.40;;;3.20;;
19780;SDS011;10050;55.492;13.506;2023-03-14T00:07:22;18.47;;;4.57;;
19780;SDS011;10050;55.492;13.506;2023-03-14T00:09:51;18.93;;;4.03;;
19780;SDS011;10050;55.492;13.506;2023-03-14T00:12:16;19.33;;;3.57;;
19780;SDS011;10050;55.492;13.506;2023-03-14T00:14:45;18.67;;;4.07;;
19780;SDS011;10050;55.492;13.506;2023-03-14T00:17:13;15.33;;;4.00;;
19780;SDS011;10050;55.492;13.506;2023-03-14T00:19:39;19.40;;;4.40;;
19780;SDS011;10050;55.492;13.506;2023-03-14T00:22:04;15.70;;;4.27;;
19780;SDS011;10050;55.492;13.506;2023-03-14T00:24:30;18.10;;;3.90;;
19780;SDS011;10050;55.492;13.506;2023-03-14T00:26:56;19.17;;;2.97;;
19780;SDS011;10050;55.492;13.506;2023-03-14T00:29:21;13.13;;;3.87;;
19780;SDS011;10050;55.492;13.506;2023-03-14T00:31:47;16.73;;;3.57;;
19780;SDS011;10050;55.492;13.506;2023-03-14T00:34:15;10.80;;;3.70;;
19780;SDS011;10050;55.492;13.506;2023-03-14T00:36:44;15.07;;;3.67;;
19780;SDS011;10050;55.492;13.506;2023-03-14T00:39:12;16.60;;;3.47;;
19780;SDS011;10050;55.492;13.506;2023-03-14T00:41:38;11.80;;;3.60;;
19780;SDS011;10050;55.492;13.506;2023-03-14T00:44:04;14.30;;;3.20;;
19780;SDS011;10050;55.492;13.506;2023-03-14T00:46:29;19.77;;;4.10;;
19780;SDS011;10050;55.492;13.506;2023-03-14T00:48:55;18.83;;;4.03;;
19780;SDS011;10050;55.492;13.506;2023-03-14T00:51:21;21.20;;;4.20;;
19780;SDS011;10050;55.492;13.506;2023-03-14T00:53:49;12.57;;;3.50;;
19780;SDS011;10050;55.492;13.506;2023-03-14T00:56:15;22.73;;;4.93;;
19780;SDS011;10050;55.492;13.506;2023-03-14T00:58:41;20.87;;;4.23;;
19780;SDS011;10050;55.492;13.506;2023-03-14T01:01:08;26.20;;;4.33;;
19780;SDS011;10050;55.492;13.506;2023-03-14T01:03:35;19.23;;;3.53;;
19780;SDS011;10050;55.492;13.506;2023-03-14T01:06:10;19.93;;;3.67;;
19780;SDS011;10050;55.492;13.506;2023-03-14T01:08:41;13.80;;;3.47;;
19780;SDS011;10050;55.492;13.506;2023-03-14T01:11:08;14.27;;;3.80;;
19780;SDS011;10050;55.492;13.506;2023-03-14T01:13:35;14.30;;;3.63;;
19780;SDS011;10050;55.492;13.506;2023-03-14T01:16:04;15.57;;;4.07;;
19780;SDS011;10050;55.492;13.506;2023-03-14T01:18:33;18.57;;;3.77;;
19780;SDS011;10050;55.492;13.506;2023-03-14T01:21:00;16.83;;;3.70;;
19780;SDS011;10050;55.492;13.506;2023-03-14T01:23:26;16.33;;;3.50;;
19780;SDS011;10050;55.492;13.506;2023-03-14T01:25:52;14.80;;;3.80;;
19780;SDS011;10050;55.492;13.506;2023-03-14T01:28:18;13.80;;;3.47;;
19780;SDS011;10050;55.492;13.506;2023-03-14T01:30:43;16.03;;;3.90;;
19780;SDS011;10050;55.492;13.506;2023-03-14T01:33:09;17.30;;;3.83;;
19780;SDS011;10050;55.492;13.506;2023-03-14T01:35:36;11.37;;;3.97;;
19780;SDS011;10050;55.492;13.506;2023-03-14T01:38:02;19.30;;;3.93;;
19780;SDS011;10050;55.492;13.506;2023-03-14T01:40:27;20.43;;;4.00;;
19780;SDS011;10050;55.492;13.506;2023-03-14T01:42:56;12.37;;;3.40;;
19780;SDS011;10050;55.492;13.506;2023-03-14T01:48:26;16.67;;;3.70;;
19780;SDS011;10050;55.492;13.506;2023-03-14T01:50:53;18.07;;;3.67;;
19780;SDS011;10050;55.492;13.506;2023-03-14T01:53:22;14.47;;;4.10;;
19780;SDS011;10050;55.492;13.506;2023-03-14T01:55:51;19.37;;;3.40;;
19780;SDS011;10050;55.492;13.506;2023-03-14T01:58:21;15.27;;;4.43;;
19780;SDS011;10050;55.492;13.506;2023-03-14T02:00:50;13.10;;;3.60;;
19780;SDS011;10050;55.492;13.506;2023-03-14T02:03:16;12.57;;;2.70;;
19780;SDS011;10050;55.492;13.506;2023-03-14T02:05:46;12.87;;;3.13;;
19780;SDS011;10050;55.492;13.506;2023-03-14T02:08:15;17.90;;;3.67;;
19780;SDS011;10050;55.492;13.506;2023-03-14T02:10:44;14.07;;;3.20;;
19780;SDS011;10050;55.492;13.506;2023-03-14T02:13:12;20.33;;;3.80;;
19780;SDS011;10050;55.492;13.506;2023-03-14T02:15:41;13.37;;;3.43;;
19780;SDS011;10050;55.492;13.506;2023-03-14T02:18:07;13.93;;;4.07;;
19780;SDS011;10050;55.492;13.506;2023-03-14T02:26:11;14.97;;;2.67;;
19780;SDS011;10050;55.492;13.506;2023-03-14T02:28:41;15.03;;;3.90;;
19780;SDS011;10050;55.492;13.506;2023-03-14T02:31:08;17.73;;;3.97;;
19780;SDS011;10050;55.492;13.506;2023-03-14T02:33:34;14.70;;;2.90;;
19780;SDS011;10050;55.492;13.506;2023-03-14T02:36:04;15.30;;;4.10;;
19780;SDS011;10050;55.492;13.506;2023-03-14T02:41:01;14.07;;;3.10;;
19780;SDS011;10050;55.492;13.506;2023-03-14T02:43:27;13.80;;;3.70;;
19780;SDS011;10050;55.492;13.506;2023-03-14T02:45:52;9.83;;;3.33;;
19780;SDS011;10050;55.492;13.506;2023-03-14T02:48:20;8.67;;;3.13;;
19780;SDS011;10050;55.492;13.506;2023-03-14T02:50:51;15.77;;;4.30;;
19780;SDS011;10050;55.492;13.506;2023-03-14T02:53:20;13.43;;;3.73;;
19780;SDS011;10050;55.492;13.506;2023-03-14T02:55:49;13.93;;;3.53;;
19780;SDS011;10050;55.492;13.506;2023-03-14T02:58:15;10.63;;;2.90;;
19780;SDS011;10050;55.492;13.506;2023-03-14T03:00:42;9.60;;;3.17;;
19780;SDS011;10050;55.492;13.506;2023-03-14T03:03:08;11.40;;;2.97;;
19780;SDS011;10050;55.492;13.506;2023-03-14T03:05:33;14.93;;;3.37;;
19780;SDS011;10050;55.492;13.506;2023-03-14T03:07:59;12.03;;;3.60;;
19780;SDS011;10050;55.492;13.506;2023-03-14T03:10:25;9.03;;;3.10;;
19780;SDS011;10050;55.492;13.506;2023-03-14T03:12:52;11.63;;;2.87;;
19780;SDS011;10050;55.492;13.506;2023-03-14T03:15:18;10.87;;;3.13;;
19780;SDS011;10050;55.492;13.506;2023-03-14T03:17:43;10.00;;;3.40;;
19780;SDS011;10050;55.492;13.506;2023-03-14T03:20:09;14.13;;;3.83;;
19780;SDS011;10050;55.492;13.506;2023-03-14T03:22:36;11.23;;;3.60;;
19780;SDS011;10050;55.492;13.506;2023-03-14T03:25:03;6.83;;;3.03;;
19780;SDS011;10050;55.492;13.506;2023-03-14T03:27:30;10.50;;;2.67;;
19780;SDS011;10050;55.492;13.506;2023-03-14T03:29:56;4.80;;;2.70;;
19780;SDS011;10050;55.492;13.506;2023-03-14T03:32:22;8.60;;;3.17;;
19780;SDS011;10050;55.492;13.506;2023-03-14T03:34:48;7.97;;;3.47;;
19780;SDS011;10050;55.492;13.506;2023-03-14T03:37:14;10.03;;;3.53;;
19780;SDS011;10050;55.492;13.506;2023-03-14T03:39:40;10.17;;;2.93;;
19780;SDS011;10050;55.492;13.506;2023-03-14T03:42:06;8.27;;;3.07;;
19780;SDS011;10050;55.492;13.506;2023-03-14T03:44:31;12.17;;;3.33;;
19780;SDS011;10050;55.492;13.506;2023-03-14T03:46:57;8.30;;;3.43;;
19780;SDS011;10050;55.492;13.506;2023-03-14T03:49:23;12.50;;;3.10;;
19780;SDS011;10050;55.492;13.506;2023-03-14T03:51:49;13.23;;;2.90;;
19780;SDS011;10050;55.492;13.506;2023-03-14T03:54:14;6.43;;;2.77;;
19780;SDS011;10050;55.492;13.506;2023-03-14T03:56:40;8.47;;;2.73;;
19780;SDS011;10050;55.492;13.506;2023-03-14T03:59:06;5.93;;;2.77;;
19780;SDS011;10050;55.492;13.506;2023-03-14T04:01:32;10.27;;;3.27;;
19780;SDS011;10050;55.492;13.506;2023-03-14T04:03:57;9.53;;;3.20;;
19780;SDS011;10050;55.492;13.506;2023-03-14T04:06:23;8.83;;;2.93;;
19780;SDS011;10050;55.492;13.506;2023-03-14T04:08:49;11.13;;;3.63;;
19780;SDS011;10050;55.492;13.506;2023-03-14T04:11:15;10.10;;;4.00;;
19780;SDS011;10050;55.492;13.506;2023-03-14T04:13:40;6.33;;;2.80;;
19780;SDS011;10050;55.492;13.506;2023-03-14T04:16:16;14.13;;;3.50;;
19780;SDS011;10050;55.492;13.506;2023-03-14T04:18:44;9.13;;;3.37;;
19780;SDS011;10050;55.492;13.506;2023-03-14T04:21:10;12.80;;;3.17;;
19780;SDS011;10050;55.492;13.506;2023-03-14T04:23:35;6.23;;;3.00;;
19780;SDS011;10050;55.492;13.506;2023-03-14T04:26:01;6.13;;;3.10;;
19780;SDS011;10050;55.492;13.506;2023-03-14T04:28:27;13.13;;;3.30;;
19780;SDS011;10050;55.492;13.506;2023-03-14T04:30:53;7.90;;;3.37;;
19780;SDS011;10050;55.492;13.506;2023-03-14T04:33:22;8.17;;;2.73;;
19780;SDS011;10050;55.492;13.506;2023-03-14T04:35:47;8.13;;;2.70;;
19780;SDS011;10050;55.492;13.506;2023-03-14T04:38:15;9.90;;;3.03;;
19780;SDS011;10050;55.492;13.506;2023-03-14T04:40:41;12.00;;;3.20;;
19780;SDS011;10050;55.492;13.506;2023-03-14T04:43:07;12.13;;;3.20;;
19780;SDS011;10050;55.492;13.506;2023-03-14T04:45:37;11.00;;;2.90;;
19780;SDS011;10050;55.492;13.506;2023-03-14T04:48:06;11.70;;;3.20;;
19780;SDS011;10050;55.492;13.506;2023-03-14T04:50:32;11.07;;;3.07;;
19780;SDS011;10050;55.492;13.506;2023-03-14T04:52:57;11.17;;;3.57;;
19780;SDS011;10050;55.492;13.506;2023-03-14T04:55:23;7.40;;;3.00;;
19780;SDS011;10050;55.492;13.506;2023-03-14T04:57:49;11.77;;;3.00;;
19780;SDS011;10050;55.492;13.506;2023-03-14T05:00:15;10.77;;;3.00;;
19780;SDS011;10050;55.492;13.506;2023-03-14T05:02:43;10.13;;;3.50;;
19780;SDS011;10050;55.492;13.506;2023-03-14T05:05:09;7.20;;;3.03;;
19780;SDS011;10050;55.492;13.506;2023-03-14T05:07:35;10.50;;;2.87;;
19780;SDS011;10050;55.492;13.506;2023-03-14T05:10:01;12.03;;;3.00;;
19780;SDS011;10050;55.492;13.506;2023-03-14T05:12:26;14.77;;;3.30;;
19780;SDS011;10050;55.492;13.506;2023-03-14T05:14:52;12.43;;;3.20;;
19780;SDS011;10050;55.492;13.506;2023-03-14T05:17:20;8.80;;;3.20;;
19780;SDS011;10050;55.492;13.506;2023-03-14T05:19:46;7.00;;;3.07;;
19780;SDS011;10050;55.492;13.506;2023-03-14T05:22:11;9.50;;;2.70;;
19780;SDS011;10050;55.492;13.506;2023-03-14T05:24:37;6.50;;;2.83;;
19780;SDS011;10050;55.492;13.506;2023-03-14T05:27:03;10.73;;;3.13;;
19780;SDS011;10050;55.492;13.506;2023-03-14T05:29:29;9.30;;;3.10;;
19780;SDS011;10050;55.492;13.506;2023-03-14T05:31:55;9.73;;;3.17;;
19780;SDS011;10050;55.492;13.506;2023-03-14T05:34:21;10.00;;;2.97;;
19780;SDS011;10050;55.492;13.506;2023-03-14T05:36:46;11.33;;;3.17;;
19780;SDS011;10050;55.492;13.506;2023-03-14T05:39:12;6.83;;;2.90;;
19780;SDS011;10050;55.492;13.506;2023-03-14T05:41:40;7.27;;;2.63;;
19780;SDS011;10050;55.492;13.506;2023-03-14T05:44:08;8.93;;;3.40;;
19780;SDS011;10050;55.492;13.506;2023-03-14T05:46:34;13.97;;;3.57;;
19780;SDS011;10050;55.492;13.506;2023-03-14T05:49:00;8.37;;;2.87;;
19780;SDS011;10050;55.492;13.506;2023-03-14T05:51:26;7.70;;;2.93;;
19780;SDS011;10050;55.492;13.506;2023-03-14T05:53:51;6.60;;;2.60;;
19780;SDS011;10050;55.492;13.506;2023-03-14T05:56:17;4.40;;;2.87;;
19780;SDS011;10050;55.492;13.506;2023-03-14T05:58:43;6.17;;;2.60;;
19780;SDS011;10050;55.492;13.506;2023-03-14T06:01:16;8.23;;;2.73;;
19780;SDS011;10050;55.492;13.506;2023-03-14T06:03:42;11.10;;;2.60;;
19780;SDS011;10050;55.492;13.506;2023-03-14T06:06:07;8.73;;;3.03;;
19780;SDS011;10050;55.492;13.506;2023-03-14T06:08:33;9.63;;;3.17;;
19780;SDS011;10050;55.492;13.506;2023-03-14T06:10:59;16.73;;;3.23;;
19780;SDS011;10050;55.492;13.506;2023-03-14T06:13:27;5.63;;;2.50;;
19780;SDS011;10050;55.492;13.506;2023-03-14T06:15:53;9.80;;;3.07;;
19780;SDS011;10050;55.492;13.506;2023-03-14T06:18:21;6.07;;;2.70;;
19780;SDS011;10050;55.492;13.506;2023-03-14T06:20:46;6.23;;;3.20;;
19780;SDS011;10050;55.492;13.506;2023-03-14T06:23:12;13.00;;;3.50;;
19780;SDS011;10050;55.492;13.506;2023-03-14T06:25:38;5.20;;;3.20;;
19780;SDS011;10050;55.492;13.506;2023-03-14T06:28:03;10.67;;;3.17;;
19780;SDS011;10050;55.492;13.506;2023-03-14T06:30:31;9.17;;;3.70;;
19780;SDS011;10050;55.492;13.506;2023-03-14T06:32:57;5.53;;;3.27;;
19780;SDS011;10050;55.492;13.506;2023-03-14T06:35:23;8.00;;;2.87;;
19780;SDS011;10050;55.492;13.506;2023-03-14T06:37:52;7.50;;;3.23;;
19780;SDS011;10050;55.492;13.506;2023-03-14T06:40:20;9.60;;;3.10;;
19780;SDS011;10050;55.492;13.506;2023-03-14T06:42:46;7.00;;;3.00;;
19780;SDS011;10050;55.492;13.506;2023-03-14T06:45:13;7.10;;;3.07;;
19780;SDS011;10050;55.492;13.506;2023-03-14T06:47:39;9.50;;;3.37;;
19780;SDS011;10050;55.492;13.506;2023-03-14T06:50:06;12.07;;;3.70;;
19780;SDS011;10050;55.492;13.506;2023-03-14T06:52:33;19.60;;;4.13;;
19780;SDS011;10050;55.492;13.506;2023-03-14T06:54:58;8.70;;;3.57;;
19780;SDS011;10050;55.492;13.506;2023-03-14T06:57:24;12.70;;;3.37;;
19780;SDS011;10050;55.492;13.506;2023-03-14T06:59:50;11.03;;;3.70;;
19780;SDS011;10050;55.492;13.506;2023-03-14T07:02:18;6.70;;;3.23;;
19780;SDS011;10050;55.492;13.506;2023-03-14T07:04:44;11.87;;;4.47;;
19780;SDS011;10050;55.492;13.506;2023-03-14T07:07:10;12.30;;;3.73;;
19780;SDS011;10050;55.492;13.506;2023-03-14T07:09:35;9.27;;;3.83;;
19780;SDS011;10050;55.492;13.506;2023-03-14T07:12:01;12.23;;;3.40;;
19780;SDS011;10050;55.492;13.506;2023-03-14T07:14:29;8.33;;;3.27;;
19780;SDS011;10050;55.492;13.506;2023-03-14T07:16:54;10.33;;;4.27;;
19780;SDS011;10050;55.492;13.506;2023-03-14T07:19:20;11.43;;;4.73;;
19780;SDS011;10050;55.492;13.506;2023-03-14T07:21:46;7.60;;;4.37;;
19780;SDS011;10050;55.492;13.506;2023-03-14T07:24:12;8.37;;;4.00;;
19780;SDS011;10050;55.492;13.506;2023-03-14T07:26:38;11.40;;;3.73;;
19780;SDS011;10050;55.492;13.506;2023-03-14T07:29:03;10.40;;;3.97;;
19780;SDS011;10050;55.492;13.506;2023-03-14T07:31:29;9.60;;;4.20;;
19780;SDS011;10050;55.492;13.506;2023-03-14T07:33:55;8.10;;;3.23;;
19780;SDS011;10050;55.492;13.506;2023-03-14T07:36:21;9.47;;;3.87;;
19780;SDS011;10050;55.492;13.506;2023-03-14T07:38:46;9.45;;;3.70;;
19780;SDS011;10050;55.492;13.506;2023-03-14T07:41:12;8.33;;;3.37;;
19780;SDS011;10050;55.492;13.506;2023-03-14T07:43:38;10.33;;;3.83;;
19780;SDS011;10050;55.492;13.506;2023-03-14T07:46:04;9.37;;;3.70;;
19780;SDS011;10050;55.492;13.506;2023-03-14T07:48:30;9.93;;;3.73;;
19780;SDS011;10050;55.492;13.506;2023-03-14T07:50:56;5.97;;;3.13;;
19780;SDS011;10050;55.492;13.506;2023-03-14T07:53:22;9.53;;;3.83;;
19780;SDS011;10050;55.492;13.506;2023-03-14T07:55:50;9.37;;;3.53;;
19780;SDS011;10050;55.492;13.506;2023-03-14T07:58:17;6.53;;;3.70;;
19780;SDS011;10050;55.492;13.506;2023-03-14T08:00:42;8.10;;;3.70;;
19780;SDS011;10050;55.492;13.506;2023-03-14T08:03:08;9.33;;;4.20;;
19780;SDS011;10050;55.492;13.506;2023-03-14T08:05:35;8.93;;;3.83;;
19780;SDS011;10050;55.492;13.506;2023-03-14T08:08:02;6.83;;;3.67;;
19780;SDS011;10050;55.492;13.506;2023-03-14T08:10:28;9.40;;;4.17;;
19780;SDS011;10050;55.492;13.506;2023-03-14T08:12:55;10.40;;;3.73;;
19780;SDS011;10050;55.492;13.506;2023-03-14T08:15:22;6.87;;;3.77;;
19780;SDS011;10050;55.492;13.506;2023-03-14T08:17:48;9.67;;;3.53;;
19780;SDS011;10050;55.492;13.506;2023-03-14T08:20:18;9.13;;;3.87;;
19780;SDS011;10050;55.492;13.506;2023-03-14T08:22:45;10.30;;;3.93;;
19780;SDS011;10050;55.492;13.506;2023-03-14T08:25:14;8.00;;;3.57;;
19780;SDS011;10050;55.492;13.506;2023-03-14T08:27:40;7.80;;;3.50;;
19780;SDS011;10050;55.492;13.506;2023-03-14T08:30:07;10.77;;;4.00;;
19780;SDS011;10050;55.492;13.506;2023-03-14T08:32:34;6.93;;;4.10;;
19780;SDS011;10050;55.492;13.506;2023-03-14T08:35:00;9.10;;;3.63;;
19780;SDS011;10050;55.492;13.506;2023-03-14T08:37:26;5.13;;;3.30;;
19780;SDS011;10050;55.492;13.506;2023-03-14T08:39:52;10.70;;;3.57;;
19780;SDS011;10050;55.492;13.506;2023-03-14T08:42:18;8.83;;;3.43;;
19780;SDS011;10050;55.492;13.506;2023-03-14T08:44:44;6.60;;;3.43;;
19780;SDS011;10050;55.492;13.506;2023-03-14T08:47:10;7.47;;;3.10;;
19780;SDS011;10050;55.492;13.506;2023-03-14T08:49:36;6.30;;;3.27;;
19780;SDS011;10050;55.492;13.506;2023-03-14T08:52:02;8.83;;;3.10;;
19780;SDS011;10050;55.492;13.506;2023-03-14T08:54:29;7.83;;;3.90;;
19780;SDS011;10050;55.492;13.506;2023-03-14T08:56:55;5.93;;;3.60;;
19780;SDS011;10050;55.492;13.506;2023-03-14T08:59:21;5.37;;;3.53;;
19780;SDS011;10050;55.492;13.506;2023-03-14T09:01:48;6.97;;;4.07;;
19780;SDS011;10050;55.492;13.506;2023-03-14T09:04:14;7.87;;;3.47;;
19780;SDS011;10050;55.492;13.506;2023-03-14T09:06:39;5.43;;;3.53;;
19780;SDS011;10050;55.492;13.506;2023-03-14T09:09:05;8.17;;;4.30;;
19780;SDS011;10050;55.492;13.506;2023-03-14T09:11:31;7.00;;;3.53;;
19780;SDS011;10050;55.492;13.506;2023-03-14T09:13:57;5.70;;;3.50;;
19780;SDS011;10050;55.492;13.506;2023-03-14T09:16:23;8.00;;;3.77;;
19780;SDS011;10050;55.492;13.506;2023-03-14T09:18:52;9.93;;;3.70;;
19780;SDS011;10050;55.492;13.506;2023-03-14T09:21:24;7.10;;;3.80;;
19780;SDS011;10050;55.492;13.506;2023-03-14T09:23:50;6.90;;;3.60;;
19780;SDS011;10050;55.492;13.506;2023-03-14T09:26:16;11.13;;;3.93;;
19780;SDS011;10050;55.492;13.506;2023-03-14T09:28:42;10.20;;;3.33;;
19780;SDS011;10050;55.492;13.506;2023-03-14T09:31:09;7.53;;;3.63;;
19780;SDS011;10050;55.492;13.506;2023-03-14T09:33:35;6.57;;;3.43;;
19780;SDS011;10050;55.492;13.506;2023-03-14T09:36:02;7.30;;;3.50;;
19780;SDS011;10050;55.492;13.506;2023-03-14T09:38:28;9.13;;;3.33;;
19780;SDS011;10050;55.492;13.506;2023-03-14T09:40:54;12.90;;;3.47;;
19780;SDS011;10050;55.492;13.506;2023-03-14T09:43:22;8.63;;;2.90;;
19780;SDS011;10050;55.492;13.506;2023-03-14T09:45:51;4.87;;;2.90;;
19780;SDS011;10050;55.492;13.506;2023-03-14T09:48:21;4.53;;;3.00;;
19780;SDS011;10050;55.492;13.506;2023-03-14T09:50:52;10.07;;;2.87;;
19780;SDS011;10050;55.492;13.506;2023-03-14T09:53:20;11.60;;;3.03;;
19780;SDS011;10050;55.492;13.506;2023-03-14T09:55:52;6.73;;;3.03;;
19780;SDS011;10050;55.492;13.506;2023-03-14T09:58:21;6.30;;;2.80;;
19780;SDS011;10050;55.492;13.506;2023-03-14T10:00:52;7.10;;;3.37;;
19780;SDS011;10050;55.492;13.506;2023-03-14T10:05:51;7.90;;;2.87;;
19780;SDS011;10050;55.492;13.506;2023-03-14T10:08:19;3.23;;;2.67;;
19780;SDS011;10050;55.492;13.506;2023-03-14T10:10:45;7.43;;;3.00;;
19780;SDS011;10050;55.492;13.506;2023-03-14T10:15:50;6.17;;;3.10;;
19780;SDS011;10050;55.492;13.506;2023-03-14T10:18:28;8.77;;;3.13;;
19780;SDS011;10050;55.492;13.506;2023-03-14T10:21:06;5.80;;;2.63;;
19780;SDS011;10050;55.492;13.506;2023-03-14T10:23:52;5.60;;;2.47;;
19780;SDS011;10050;55.492;13.506;2023-03-14T10:26:23;5.93;;;3.00;;
19780;SDS011;10050;55.492;13.506;2023-03-14T10:28:52;6.33;;;3.00;;
19780;SDS011;10050;55.492;13.506;2023-03-14T10:31:26;6.53;;;2.97;;
19780;SDS011;10050;55.492;13.506;2023-03-14T10:34:26;7.53;;;3.13;;
19780;SDS011;10050;55.492;13.506;2023-03-14T10:36:58;3.03;;;2.73;;
19780;SDS011;10050;55.492;13.506;2023-03-14T10:39:30;7.33;;;3.67;;
19780;SDS011;10050;55.492;13.506;2023-03-14T10:42:30;7.10;;;2.87;;
19780;SDS011;10050;55.492;13.506;2023-03-14T10:45:06;8.17;;;2.70;;
19780;SDS011;10050;55.492;13.506;2023-03-14T10:47:48;8.17;;;2.93;;
19780;SDS011;10050;55.492;13.506;2023-03-14T10:50:25;6.80;;;3.00;;
19780;SDS011;10050;55.492;13.506;2023-03-14T10:52:53;5.90;;;2.23;;
19780;SDS011;10050;55.492;13.506;2023-03-14T10:55:20;3.83;;;1.73;;
19780;SDS011;10050;55.492;13.506;2023-03-14T10:57:46;4.40;;;1.90;;
19780;SDS011;10050;55.492;13.506;2023-03-14T11:00:15;4.33;;;1.63;;
19780;SDS011;10050;55.492;13.506;2023-03-14T11:10:46;2.33;;;1.30;;
19780;SDS011;10050;55.492;13.506;2023-03-14T11:30:51;5.27;;;1.90;;
19780;SDS011;10050;55.492;13.506;2023-03-14T11:33:22;7.13;;;2.27;;
19780;SDS011;10050;55.492;13.506;2023-03-14T11:35:55;8.20;;;2.00;;
19780;SDS011;10050;55.492;13.506;2023-03-14T11:38:36;4.63;;;2.07;;
19780;SDS011;10050;55.492;13.506;2023-03-14T11:41:16;4.97;;;1.60;;
19780;SDS011;10050;55.492;13.506;2023-03-14T11:43:52;6.53;;;1.43;;
19780;SDS011;10050;55.492;13.506;2023-03-14T11:46:27;6.07;;;1.60;;
19780;SDS011;10050;55.492;13.506;2023-03-14T11:52:11;3.57;;;1.43;;
19780;SDS011;10050;55.492;13.506;2023-03-14T11:57:26;3.73;;;1.10;;
19780;SDS011;10050;55.492;13.506;2023-03-14T12:00:02;5.07;;;1.20;;
19780;SDS011;10050;55.492;13.506;2023-03-14T12:02:45;3.37;;;1.00;;
19780;SDS011;10050;55.492;13.506;2023-03-14T12:05:39;3.43;;;1.43;;
19780;SDS011;10050;55.492;13.506;2023-03-14T12:11:02;3.57;;;1.10;;
19780;SDS011;10050;55.492;13.506;2023-03-14T12:13:36;3.00;;;1.00;;
19780;SDS011;10050;55.492;13.506;2023-03-14T12:16:24;0.80;;;0.80;;
19780;SDS011;10050;55.492;13.506;2023-03-14T12:18:52;1.13;;;0.80;;
19780;SDS011;10050;55.492;13.506;2023-03-14T12:21:19;0.90;;;0.90;;
19780;SDS011;10050;55.492;13.506;2023-03-14T12:26:19;2.13;;;1.00;;
19780;SDS011;10050;55.492;13.506;2023-03-14T12:28:50;4.13;;;1.60;;
19780;SDS011;10050;55.492;13.506;2023-03-14T12:41:51;2.50;;;1.20;;
19780;SDS011;10050;55.492;13.506;2023-03-14T12:49:45;4.53;;;1.10;;
19780;SDS011;10050;55.492;13.506;2023-03-14T12:52:17;3.63;;;1.37;;
19780;SDS011;10050;55.492;13.506;2023-03-14T12:57:40;4.40;;;1.53;;
19780;SDS011;10050;55.492;13.506;2023-03-14T13:00:17;5.27;;;1.67;;
19780;SDS011;10050;55.492;13.506;2023-03-14T13:02:45;5.23;;;1.67;;
19780;SDS011;10050;55.492;13.506;2023-03-14T13:05:17;5.17;;;1.50;;
19780;SDS011;10050;55.492;13.506;2023-03-14T13:15:38;7.87;;;1.70;;
19780;SDS011;10050;55.492;13.506;2023-03-14T13:18:10;5.20;;;1.93;;
19780;SDS011;10050;55.492;13.506;2023-03-14T13:20:37;7.37;;;1.67;;
19780;SDS011;10050;55.492;13.506;2023-03-14T13:23:19;5.17;;;1.57;;
19780;SDS011;10050;55.492;13.506;2023-03-14T13:25:46;5.23;;;1.37;;
19780;SDS011;10050;55.492;13.506;2023-03-14T13:28:13;5.43;;;1.73;;
19780;SDS011;10050;55.492;13.506;2023-03-14T13:30:40;8.73;;;1.70;;
19780;SDS011;10050;55.492;13.506;2023-03-14T13:33:12;8.80;;;1.97;;
19780;SDS011;10050;55.492;13.506;2023-03-14T13:35:46;6.87;;;1.80;;
19780;SDS011;10050;55.492;13.506;2023-03-14T13:38:20;6.73;;;2.07;;
19780;SDS011;10050;55.492;13.506;2023-03-14T13:40:51;8.23;;;1.90;;
19780;SDS011;10050;55.492;13.506;2023-03-14T13:43:28;10.47;;;1.93;;
19780;SDS011;10050;55.492;13.506;2023-03-14T13:46:15;5.73;;;1.67;;
19780;SDS011;10050;55.492;13.506;2023-03-14T13:49:07;7.43;;;2.07;;
19780;SDS011;10050;55.492;13.506;2023-03-14T13:51:34;4.60;;;1.87;;
19780;SDS011;10050;55.492;13.506;2023-03-14T13:54:03;10.17;;;2.00;;
19780;SDS011;10050;55.492;13.506;2023-03-14T13:56:30;6.37;;;1.83;;
19780;SDS011;10050;55.492;13.506;2023-03-14T13:58:57;8.73;;;2.27;;
19780;SDS011;10050;55.492;13.506;2023-03-14T14:01:30;6.33;;;2.23;;
19780;SDS011;10050;55.492;13.506;2023-03-14T14:04:20;10.07;;;1.53;;
19780;SDS011;10050;55.492;13.506;2023-03-14T14:06:49;8.03;;;1.70;;
19780;SDS011;10050;55.492;13.506;2023-03-14T14:09:24;4.87;;;2.20;;
19780;SDS011;10050;55.492;13.506;2023-03-14T14:11:56;4.17;;;1.27;;
19780;SDS011;10050;55.492;13.506;2023-03-14T14:14:33;4.70;;;1.70;;
19780;SDS011;10050;55.492;13.506;2023-03-14T14:17:05;8.60;;;2.03;;
19780;SDS011;10050;55.492;13.506;2023-03-14T14:19:33;5.20;;;1.30;;
19780;SDS011;10050;55.492;13.506;2023-03-14T14:22:00;10.33;;;1.83;;
19780;SDS011;10050;55.492;13.506;2023-03-14T14:24:31;4.57;;;1.53;;
19780;SDS011;10050;55.492;13.506;2023-03-14T14:27:19;6.70;;;1.50;;
19780;SDS011;10050;55.492;13.506;2023-03-14T14:29:56;6.20;;;1.83;;
19780;SDS011;10050;55.492;13.506;2023-03-14T14:32:24;6.13;;;1.47;;
19780;SDS011;10050;55.492;13.506;2023-03-14T14:34:59;5.30;;;1.50;;
19780;SDS011;10050;55.492;13.506;2023-03-14T14:37:27;5.87;;;1.93;;
19780;SDS011;10050;55.492;13.506;2023-03-14T14:39:55;4.83;;;1.40;;
19780;SDS011;10050;55.492;13.506;2023-03-14T14:42:31;7.10;;;1.80;;
19780;SDS011;10050;55.492;13.506;2023-03-14T14:44:57;5.57;;;2.67;;
19780;SDS011;10050;55.492;13.506;2023-03-14T14:47:25;5.27;;;1.43;;
19780;SDS011;10050;55.492;13.506;2023-03-14T14:49:53;4.43;;;1.40;;
19780;SDS011;10050;55.492;13.506;2023-03-14T14:52:21;8.17;;;1.70;;
19780;SDS011;10050;55.492;13.506;2023-03-14T14:55:00;6.93;;;1.63;;
19780;SDS011;10050;55.492;13.506;2023-03-14T14:57:37;10.47;;;1.97;;
19780;SDS011;10050;55.492;13.506;2023-03-14T15:00:17;4.50;;;1.53;;
19780;SDS011;10050;55.492;13.506;2023-03-14T15:02:46;7.47;;;1.60;;
19780;SDS011;10050;55.492;13.506;2023-03-14T15:05:19;4.50;;;1.43;;
19780;SDS011;10050;55.492;13.506;2023-03-14T15:07:50;4.63;;;1.57;;
19780;SDS011;10050;55.492;13.506;2023-03-14T15:10:17;3.30;;;1.40;;
19780;SDS011;10050;55.492;13.506;2023-03-14T15:12:45;6.53;;;1.90;;
19780;SDS011;10050;55.492;13.506;2023-03-14T15:15:12;6.30;;;1.60;;
19780;SDS011;10050;55.492;13.506;2023-03-14T15:17:38;7.37;;;1.90;;
19780;SDS011;10050;55.492;13.506;2023-03-14T15:20:05;3.80;;;1.70;;
19780;SDS011;10050;55.492;13.506;2023-03-14T15:22:34;9.23;;;1.67;;
19780;SDS011;10050;55.492;13.506;2023-03-14T15:25:00;7.63;;;1.60;;
19780;SDS011;10050;55.492;13.506;2023-03-14T15:27:26;4.90;;;1.60;;
19780;SDS011;10050;55.492;13.506;2023-03-14T15:29:55;6.23;;;1.47;;
19780;SDS011;10050;55.492;13.506;2023-03-14T15:32:20;7.53;;;1.60;;
19780;SDS011;10050;55.492;13.506;2023-03-14T15:34:48;6.67;;;1.63;;
19780;SDS011;10050;55.492;13.506;2023-03-14T15:37:15;3.87;;;1.50;;
19780;SDS011;10050;55.492;13.506;2023-03-14T15:39:42;5.47;;;1.67;;
19780;SDS011;10050;55.492;13.506;2023-03-14T15:42:08;5.90;;;1.73;;
19780;SDS011;10050;55.492;13.506;2023-03-14T15:44:34;7.87;;;1.90;;
19780;SDS011;10050;55.492;13.506;2023-03-14T15:47:00;2.87;;;1.47;;
19780;SDS011;10050;55.492;13.506;2023-03-14T15:49:26;3.80;;;1.23;;
19780;SDS011;10050;55.492;13.506;2023-03-14T15:51:52;4.03;;;1.50;;
19780;SDS011;10050;55.492;13.506;2023-03-14T15:54:17;6.37;;;1.50;;
19780;SDS011;10050;55.492;13.506;2023-03-14T15:56:43;9.40;;;1.80;;